sensor_id;sensor_type;location;lat;lon;timestamp;pressure;altitude;pressure_sealevel;temperature;humidity
69630;BME280;56857;52.212;5.496;2024-01-10T00:02:08;103317.72;;;-4.07;100.00
69630;BME280;56857;52.212;5.496;2024-01-10T00:04:34;103310.84;;;-4.08;100.00
69630;BME280;56857;52.212;5.496;2024-01-10T00:06:59;103310.00;;;-4.13;100.00
69630;BME280;56857;52.212;5.496;2024-01-10T00:09:24;103309.16;;;-4.14;100.00
69630;BME280;56857;52.212;5.496;2024-01-10T00:11:50;103305.75;;;-4.16;100.00
69630;BME280;56857;52.212;5.496;2024-01-10T00:14:15;103305.75;;;-4.16;100.00
69630;BME280;56857;52.212;5.496;2024-01-10T00:16:40;103305.72;;;-4.14;100.00
69630;BME280;56857;52.212;5.496;2024-01-10T00:19:06;103305.75;;;-4.17;100.00
69630;BME280;56857;52.212;5.496;2024-01-10T00:21:31;103298.88;;;-4.22;100.00
69630;BME280;56857;52.212;5.496;2024-01-10T00:23:57;103301.47;;;-4.23;100.00
69630;BME280;56857;52.212;5.496;2024-01-10T00:26:22;103292.03;;;-4.27;100.00
69630;BME280;56857;52.212;5.496;2024-01-10T00:28:47;103285.13;;;-4.28;100.00
69630;BME280;56857;52.212;5.496;2024-01-10T00:31:13;103286.91;;;-4.32;100.00
69630;BME280;56857;52.212;5.496;2024-01-10T00:33:39;103286.88;;;-4.30;100.00
69630;BME280;56857;52.212;5.496;2024-01-10T00:36:04;103286.88;;;-4.30;100.00
69630;BME280;56857;52.212;5.496;2024-01-10T00:38:29;103291.19;;;-4.31;100.00
69630;BME280;56857;52.212;5.496;2024-01-10T00:40:55;103293.75;;;-4.29;100.00
69630;BME280;56857;52.212;5.496;2024-01-10T00:43:20;103293.75;;;-4.28;100.00
69630;BME280;56857;52.212;5.496;2024-01-10T00:45:46;103283.34;;;-4.23;100.00
69630;BME280;56857;52.212;5.496;2024-01-10T00:48:12;103284.19;;;-4.23;100.00
69630;BME280;56857;52.212;5.496;2024-01-10T00:50:37;103291.94;;;-4.20;100.00
69630;BME280;56857;52.212;5.496;2024-01-10T00:53:02;103286.78;;;-4.21;100.00
69630;BME280;56857;52.212;5.496;2024-01-10T00:55:28;103284.16;;;-4.20;100.00
69630;BME280;56857;52.212;5.496;2024-01-10T00:57:53;103279.91;;;-4.24;100.00
69630;BME280;56857;52.212;5.496;2024-01-10T01:00:18;103286.81;;;-4.24;100.00
69630;BME280;56857;52.212;5.496;2024-01-10T01:02:44;103284.22;;;-4.26;100.00
69630;BME280;56857;52.212;5.496;2024-01-10T01:05:09;103274.78;;;-4.28;100.00
69630;BME280;56857;52.212;5.496;2024-01-10T01:07:36;103279.94;;;-4.30;100.00
69630;BME280;56857;52.212;5.496;2024-01-10T01:10:01;103282.53;;;-4.30;100.00
69630;BME280;56857;52.212;5.496;2024-01-10T01:12:27;103282.53;;;-4.30;100.00
69630;BME280;56857;52.212;5.496;2024-01-10T01:14:53;103282.59;;;-4.34;100.00
69630;BME280;56857;52.212;5.496;2024-01-10T01:17:18;103280.00;;;-4.34;100.00
69630;BME280;56857;52.212;5.496;2024-01-10T01:19:43;103285.19;;;-4.36;100.00
69630;BME280;56857;52.212;5.496;2024-01-10T01:22:09;103273.97;;;-4.35;100.00
69630;BME280;56857;52.212;5.496;2024-01-10T01:24:34;103274.84;;;-4.37;100.00
69630;BME280;56857;52.212;5.496;2024-01-10T01:26:59;103274.88;;;-4.40;100.00
69630;BME280;56857;52.212;5.496;2024-01-10T01:29:25;103269.69;;;-4.40;100.00
69630;BME280;56857;52.212;5.496;2024-01-10T01:31:50;103274.88;;;-4.42;100.00
69630;BME280;56857;52.212;5.496;2024-01-10T01:34:15;103274.91;;;-4.44;100.00
69630;BME280;56857;52.212;5.496;2024-01-10T01:36:41;103280.06;;;-4.42;100.00
69630;BME280;56857;52.212;5.496;2024-01-10T01:39:06;103271.44;;;-4.41;100.00
69630;BME280;56857;52.212;5.496;2024-01-10T01:41:32;103272.25;;;-4.39;100.00
69630;BME280;56857;52.212;5.496;2024-01-10T01:43:57;103272.25;;;-4.39;100.00
69630;BME280;56857;52.212;5.496;2024-01-10T01:46:23;103269.69;;;-4.40;100.00
69630;BME280;56857;52.212;5.496;2024-01-10T01:48:49;103267.13;;;-4.44;100.00
69630;BME280;56857;52.212;5.496;2024-01-10T01:51:14;103270.56;;;-4.40;100.00
69630;BME280;56857;52.212;5.496;2024-01-10T01:53:40;103268.84;;;-4.43;100.00
69630;BME280;56857;52.212;5.496;2024-01-10T01:56:07;103266.31;;;-4.47;100.00
69630;BME280;56857;52.212;5.496;2024-01-10T01:58:34;103261.13;;;-4.49;100.00
69630;BME280;56857;52.212;5.496;2024-01-10T02:01:02;103257.72;;;-4.51;100.00
69630;BME280;56857;52.212;5.496;2024-01-10T02:03:30;103268.06;;;-4.52;100.00
69630;BME280;56857;52.212;5.496;2024-01-10T02:05:56;103256.84;;;-4.53;100.00
69630;BME280;56857;52.212;5.496;2024-01-10T02:08:22;103255.16;;;-4.55;100.00
69630;BME280;56857;52.212;5.496;2024-01-10T02:10:47;103255.19;;;-4.57;100.00
69630;BME280;56857;52.212;5.496;2024-01-10T02:13:12;103257.78;;;-4.60;100.00
69630;BME280;56857;52.212;5.496;2024-01-10T02:15:38;103252.59;;;-4.61;100.00
69630;BME280;56857;52.212;5.496;2024-01-10T02:18:03;103250.03;;;-4.63;100.00
69630;BME280;56857;52.212;5.496;2024-01-10T02:20:29;103251.75;;;-4.63;100.00
69630;BME280;56857;52.212;5.496;2024-01-10T02:22:54;103245.72;;;-4.64;100.00
69630;BME280;56857;52.212;5.496;2024-01-10T02:25:20;103255.25;;;-4.66;100.00
69630;BME280;56857;52.212;5.496;2024-01-10T02:27:45;103251.78;;;-4.67;100.00
69630;BME280;56857;52.212;5.496;2024-01-10T02:30:10;103240.56;;;-4.66;100.00
69630;BME280;56857;52.212;5.496;2024-01-10T02:32:36;103243.13;;;-4.64;100.00
69630;BME280;56857;52.212;5.496;2024-01-10T02:35:01;103237.97;;;-4.66;100.00
69630;BME280;56857;52.212;5.496;2024-01-10T02:37:26;103240.56;;;-4.66;100.00
69630;BME280;56857;52.212;5.496;2024-01-10T02:39:52;103244.88;;;-4.64;100.00
69630;BME280;56857;52.212;5.496;2024-01-10T02:42:17;103240.53;;;-4.62;100.00
69630;BME280;56857;52.212;5.496;2024-01-10T02:44:43;103242.28;;;-4.63;100.00
69630;BME280;56857;52.212;5.496;2024-01-10T02:47:09;103235.41;;;-4.66;100.00
69630;BME280;56857;52.212;5.496;2024-01-10T02:49:34;103231.03;;;-4.63;100.00
69630;BME280;56857;52.212;5.496;2024-01-10T02:51:59;103239.69;;;-4.64;100.00
69630;BME280;56857;52.212;5.496;2024-01-10T02:54:25;103238.81;;;-4.63;100.00
69630;BME280;56857;52.212;5.496;2024-01-10T02:56:50;103230.19;;;-4.64;100.00
69630;BME280;56857;52.212;5.496;2024-01-10T02:59:16;103231.94;;;-4.63;100.00
69630;BME280;56857;52.212;5.496;2024-01-10T03:01:41;103239.69;;;-4.63;100.00
69630;BME280;56857;52.212;5.496;2024-01-10T03:04:06;103231.06;;;-4.65;100.00
69630;BME280;56857;52.212;5.496;2024-01-10T03:06:32;103230.22;;;-4.66;100.00
69630;BME280;56857;52.212;5.496;2024-01-10T03:08:57;103234.53;;;-4.66;100.00
69630;BME280;56857;52.212;5.496;2024-01-10T03:11:22;103234.50;;;-4.64;100.00
69630;BME280;56857;52.212;5.496;2024-01-10T03:13:51;103224.19;;;-4.66;100.00
69630;BME280;56857;52.212;5.496;2024-01-10T03:16:16;103226.75;;;-4.64;100.00
69630;BME280;56857;52.212;5.496;2024-01-10T03:18:42;103221.56;;;-4.64;100.00
69630;BME280;56857;52.212;5.496;2024-01-10T03:21:07;103219.88;;;-4.66;100.00
69630;BME280;56857;52.212;5.496;2024-01-10T03:23:32;103214.69;;;-4.67;100.00
69630;BME280;56857;52.212;5.496;2024-01-10T03:25:58;103214.72;;;-4.69;100.00
69630;BME280;56857;52.212;5.496;2024-01-10T03:28:23;103210.41;;;-4.71;100.00
69630;BME280;56857;52.212;5.496;2024-01-10T03:30:49;103209.56;;;-4.73;100.00
69630;BME280;56857;52.212;5.496;2024-01-10T03:33:14;103206.97;;;-4.72;100.00
69630;BME280;56857;52.212;5.496;2024-01-10T03:35:39;103202.69;;;-4.73;100.00
69630;BME280;56857;52.212;5.496;2024-01-10T03:38:04;103201.81;;;-4.72;100.00
69630;BME280;56857;52.212;5.496;2024-01-10T03:40:30;103206.13;;;-4.74;100.00
69630;BME280;56857;52.212;5.496;2024-01-10T03:42:55;103202.69;;;-4.73;100.00
69630;BME280;56857;52.212;5.496;2024-01-10T03:45:20;103200.97;;;-4.75;100.00
69630;BME280;56857;52.212;5.496;2024-01-10T03:47:46;103200.97;;;-4.77;100.00
69630;BME280;56857;52.212;5.496;2024-01-10T03:50:12;103207.91;;;-4.79;100.00
69630;BME280;56857;52.212;5.496;2024-01-10T03:52:37;103200.13;;;-4.80;100.00
69630;BME280;56857;52.212;5.496;2024-01-10T03:55:02;103209.59;;;-4.79;100.00
69630;BME280;56857;52.212;5.496;2024-01-10T03:57:28;103203.56;;;-4.77;100.00
69630;BME280;56857;52.212;5.496;2024-01-10T03:59:53;103200.13;;;-4.76;100.00
69630;BME280;56857;52.212;5.496;2024-01-10T04:02:18;103199.25;;;-4.75;100.00
69630;BME280;56857;52.212;5.496;2024-01-10T04:04:44;103198.34;;;-4.72;100.00
69630;BME280;56857;52.212;5.496;2024-01-10T04:07:09;103194.91;;;-4.74;100.00
69630;BME280;56857;52.212;5.496;2024-01-10T04:09:34;103200.06;;;-4.71;100.00
69630;BME280;56857;52.212;5.496;2024-01-10T04:12:00;103200.94;;;-4.72;100.00
69630;BME280;56857;52.212;5.496;2024-01-10T04:14:25;103193.22;;;-4.75;100.00
69630;BME280;56857;52.212;5.496;2024-01-10T04:16:51;103197.50;;;-4.73;100.00
69630;BME280;56857;52.212;5.496;2024-01-10T04:19:17;103185.44;;;-4.75;100.00
69630;BME280;56857;52.212;5.496;2024-01-10T04:21:42;103179.38;;;-4.74;100.00
69630;BME280;56857;52.212;5.496;2024-01-10T04:24:07;103184.59;;;-4.76;100.00
69630;BME280;56857;52.212;5.496;2024-01-10T04:26:32;103187.22;;;-4.79;100.00
69630;BME280;56857;52.212;5.496;2024-01-10T04:28:58;103199.25;;;-4.79;100.00
69630;BME280;56857;52.212;5.496;2024-01-10T04:31:23;103198.41;;;-4.80;100.00
69630;BME280;56857;52.212;5.496;2024-01-10T04:33:48;103187.22;;;-4.82;100.00
69630;BME280;56857;52.212;5.496;2024-01-10T04:36:14;103192.41;;;-4.82;100.00
69630;BME280;56857;52.212;5.496;2024-01-10T04:38:39;103195.84;;;-4.83;100.00
69630;BME280;56857;52.212;5.496;2024-01-10T04:41:04;103193.25;;;-4.83;100.00
69630;BME280;56857;52.212;5.496;2024-01-10T04:43:29;103185.53;;;-4.84;100.00
69630;BME280;56857;52.212;5.496;2024-01-10T04:45:55;103186.38;;;-4.84;100.00
69630;BME280;56857;52.212;5.496;2024-01-10T04:48:20;103187.25;;;-4.86;100.00
69630;BME280;56857;52.212;5.496;2024-01-10T04:50:45;103182.06;;;-4.86;100.00
69630;BME280;56857;52.212;5.496;2024-01-10T04:53:11;103187.25;;;-4.86;100.00
69630;BME280;56857;52.212;5.496;2024-01-10T04:55:36;103186.41;;;-4.87;100.00
69630;BME280;56857;52.212;5.496;2024-01-10T04:58:01;103195.91;;;-4.87;100.00
69630;BME280;56857;52.212;5.496;2024-01-10T05:00:27;103188.13;;;-4.87;100.00
69630;BME280;56857;52.212;5.496;2024-01-10T05:02:52;103186.41;;;-4.87;100.00
69630;BME280;56857;52.212;5.496;2024-01-10T05:05:18;103182.97;;;-4.89;100.00
69630;BME280;56857;52.212;5.496;2024-01-10T05:07:43;103183.88;;;-4.92;100.00
69630;BME280;56857;52.212;5.496;2024-01-10T05:10:08;103177.81;;;-4.95;100.00
69630;BME280;56857;52.212;5.496;2024-01-10T05:12:34;103186.50;;;-4.99;100.00
69630;BME280;56857;52.212;5.496;2024-01-10T05:14:59;103176.97;;;-4.96;100.00
69630;BME280;56857;52.212;5.496;2024-01-10T05:17:25;103173.56;;;-4.98;100.00
69630;BME280;56857;52.212;5.496;2024-01-10T05:19:50;103165.78;;;-4.96;100.00
69630;BME280;56857;52.212;5.496;2024-01-10T05:22:16;103169.19;;;-4.93;100.00
69630;BME280;56857;52.212;5.496;2024-01-10T05:24:41;103162.31;;;-4.95;100.00
69630;BME280;56857;52.212;5.496;2024-01-10T05:27:06;103161.47;;;-4.99;100.00
69630;BME280;56857;52.212;5.496;2024-01-10T05:29:32;103159.78;;;-5.00;100.00
69630;BME280;56857;52.212;5.496;2024-01-10T05:31:57;103160.69;;;-5.04;100.00
69630;BME280;56857;52.212;5.496;2024-01-10T05:34:22;103155.50;;;-5.05;100.00
69630;BME280;56857;52.212;5.496;2024-01-10T05:36:47;103154.63;;;-5.04;100.00
69630;BME280;56857;52.212;5.496;2024-01-10T05:39:13;103153.75;;;-5.05;100.00
69630;BME280;56857;52.212;5.496;2024-01-10T05:41:38;103153.75;;;-5.05;100.00
69630;BME280;56857;52.212;5.496;2024-01-10T05:44:03;103155.50;;;-5.04;100.00
69630;BME280;56857;52.212;5.496;2024-01-10T05:46:29;103156.34;;;-5.05;100.00
69630;BME280;56857;52.212;5.496;2024-01-10T05:48:54;103156.34;;;-5.03;100.00
69630;BME280;56857;52.212;5.496;2024-01-10T05:51:19;103163.25;;;-5.02;100.00
69630;BME280;56857;52.212;5.496;2024-01-10T05:53:45;103165.81;;;-5.02;100.00
69630;BME280;56857;52.212;5.496;2024-01-10T05:56:10;103165.81;;;-5.02;100.00
69630;BME280;56857;52.212;5.496;2024-01-10T05:58:35;103155.44;;;-4.99;100.00
69630;BME280;56857;52.212;5.496;2024-01-10T06:01:01;103146.78;;;-4.95;100.00
69630;BME280;56857;52.212;5.496;2024-01-10T06:03:26;103157.13;;;-4.95;100.00
69630;BME280;56857;52.212;5.496;2024-01-10T06:05:51;103148.50;;;-4.93;100.00
69630;BME280;56857;52.212;5.496;2024-01-10T06:08:17;103143.34;;;-4.94;100.00
69630;BME280;56857;52.212;5.496;2024-01-10T06:10:42;103142.44;;;-4.90;100.00
69630;BME280;56857;52.212;5.496;2024-01-10T06:13:07;103140.75;;;-4.91;100.00
69630;BME280;56857;52.212;5.496;2024-01-10T06:15:32;103139.88;;;-4.92;100.00
69630;BME280;56857;52.212;5.496;2024-01-10T06:17:58;103132.16;;;-4.95;100.00
69630;BME280;56857;52.212;5.496;2024-01-10T06:20:23;103125.28;;;-4.99;100.00
69630;BME280;56857;52.212;5.496;2024-01-10T06:22:48;103129.59;;;-4.98;100.00
69630;BME280;56857;52.212;5.496;2024-01-10T06:25:14;103127.88;;;-5.00;100.00
69630;BME280;56857;52.212;5.496;2024-01-10T06:27:40;103124.44;;;-5.01;100.00
69630;BME280;56857;52.212;5.496;2024-01-10T06:30:05;103134.78;;;-5.02;100.00
69630;BME280;56857;52.212;5.496;2024-01-10T06:32:31;103144.25;;;-5.01;100.00
69630;BME280;56857;52.212;5.496;2024-01-10T06:34:56;103145.13;;;-5.02;100.00
69630;BME280;56857;52.212;5.496;2024-01-10T06:37:22;103146.84;;;-5.00;100.00
69630;BME280;56857;52.212;5.496;2024-01-10T06:39:47;103139.94;;;-4.98;100.00
69630;BME280;56857;52.212;5.496;2024-01-10T06:42:12;103141.59;;;-4.92;100.00
69630;BME280;56857;52.212;5.496;2024-01-10T06:44:38;103142.44;;;-4.88;100.00
69630;BME280;56857;52.212;5.496;2024-01-10T06:47:03;103138.97;;;-4.89;100.00
69630;BME280;56857;52.212;5.496;2024-01-10T06:49:28;103137.22;;;-4.84;100.00
69630;BME280;56857;52.212;5.496;2024-01-10T06:51:54;103140.63;;;-4.79;100.00
69630;BME280;56857;52.212;5.496;2024-01-10T06:54:19;103143.16;;;-4.74;100.00
69630;BME280;56857;52.212;5.496;2024-01-10T06:56:44;103136.25;;;-4.74;100.00
69630;BME280;56857;52.212;5.496;2024-01-10T06:59:10;103150.88;;;-4.68;100.00
69630;BME280;56857;52.212;5.496;2024-01-10T07:01:35;103150.88;;;-4.68;100.00
69630;BME280;56857;52.212;5.496;2024-01-10T07:04:01;103151.72;;;-4.66;100.00
69630;BME280;56857;52.212;5.496;2024-01-10T07:06:26;103150.84;;;-4.65;100.00
69630;BME280;56857;52.212;5.496;2024-01-10T07:08:51;103149.06;;;-4.61;100.00
69630;BME280;56857;52.212;5.496;2024-01-10T07:11:17;103145.63;;;-4.62;100.00
69630;BME280;56857;52.212;5.496;2024-01-10T07:13:43;103145.63;;;-4.63;100.00
69630;BME280;56857;52.212;5.496;2024-01-10T07:16:09;103147.34;;;-4.59;100.00
69630;BME280;56857;52.212;5.496;2024-01-10T07:18:34;103156.81;;;-4.57;100.00
69630;BME280;56857;52.212;5.496;2024-01-10T07:21:00;103162.84;;;-4.58;100.00
69630;BME280;56857;52.212;5.496;2024-01-10T07:23:25;103155.94;;;-4.56;100.00
69630;BME280;56857;52.212;5.496;2024-01-10T07:25:51;103155.09;;;-4.56;100.00
69630;BME280;56857;52.212;5.496;2024-01-10T07:28:17;103158.50;;;-4.54;100.00
69630;BME280;56857;52.212;5.496;2024-01-10T07:30:42;103152.50;;;-4.56;100.00
69630;BME280;56857;52.212;5.496;2024-01-10T07:33:07;103167.16;;;-4.57;100.00
69630;BME280;56857;52.212;5.496;2024-01-10T07:35:33;103175.78;;;-4.58;100.00
69630;BME280;56857;52.212;5.496;2024-01-10T07:37:59;103178.38;;;-4.56;100.00
69630;BME280;56857;52.212;5.496;2024-01-10T07:40:24;103174.91;;;-4.55;100.00
69630;BME280;56857;52.212;5.496;2024-01-10T07:42:49;103180.94;;;-4.55;100.00
69630;BME280;56857;52.212;5.496;2024-01-10T07:45:14;103184.41;;;-4.56;100.00
69630;BME280;56857;52.212;5.496;2024-01-10T07:47:40;103172.31;;;-4.55;100.00
69630;BME280;56857;52.212;5.496;2024-01-10T07:50:06;103178.34;;;-4.55;100.00
69630;BME280;56857;52.212;5.496;2024-01-10T07:52:33;103174.09;;;-4.59;100.00
69630;BME280;56857;52.212;5.496;2024-01-10T07:54:58;103172.34;;;-4.58;100.00
69630;BME280;56857;52.212;5.496;2024-01-10T07:57:23;103169.75;;;-4.58;100.00
69630;BME280;56857;52.212;5.496;2024-01-10T07:59:49;103174.09;;;-4.59;100.00
69630;BME280;56857;52.212;5.496;2024-01-10T08:02:14;103173.28;;;-4.67;100.00
69630;BME280;56857;52.212;5.496;2024-01-10T08:04:39;103173.31;;;-4.69;100.00
69630;BME280;56857;52.212;5.496;2024-01-10T08:07:05;103176.75;;;-4.68;100.00
69630;BME280;56857;52.212;5.496;2024-01-10T08:09:30;103181.09;;;-4.72;100.00
69630;BME280;56857;52.212;5.496;2024-01-10T08:11:55;103181.09;;;-4.72;100.00
69630;BME280;56857;52.212;5.496;2024-01-10T08:14:21;103181.94;;;-4.68;100.00
69630;BME280;56857;52.212;5.496;2024-01-10T08:16:46;103182.81;;;-4.69;100.00
69630;BME280;56857;52.212;5.496;2024-01-10T08:19:12;103178.47;;;-4.70;100.00
69630;BME280;56857;52.212;5.496;2024-01-10T08:21:37;103165.56;;;-4.72;100.00
69630;BME280;56857;52.212;5.496;2024-01-10T08:24:03;103156.97;;;-4.72;100.00
69630;BME280;56857;52.212;5.496;2024-01-10T08:26:30;103163.88;;;-4.74;100.00
69630;BME280;56857;52.212;5.496;2024-01-10T08:28:55;103171.66;;;-4.77;100.00
69630;BME280;56857;52.212;5.496;2024-01-10T08:31:20;103165.59;;;-4.76;100.00
69630;BME280;56857;52.212;5.496;2024-01-10T08:33:46;103166.44;;;-4.74;100.00
69630;BME280;56857;52.212;5.496;2024-01-10T08:36:11;103173.25;;;-4.64;100.00
69630;BME280;56857;52.212;5.496;2024-01-10T08:38:36;103174.91;;;-4.55;100.00
69630;BME280;56857;52.212;5.496;2024-01-10T08:41:02;103161.00;;;-4.45;100.00
69630;BME280;56857;52.212;5.496;2024-01-10T08:43:27;103160.88;;;-4.33;100.00
69630;BME280;56857;52.212;5.496;2024-01-10T08:45:52;103157.22;;;-4.16;100.00
69630;BME280;56857;52.212;5.496;2024-01-10T08:48:18;103163.97;;;-4.00;100.00
69630;BME280;56857;52.212;5.496;2024-01-10T08:50:43;103155.13;;;-3.85;100.00
69630;BME280;56857;52.212;5.496;2024-01-10T08:53:09;103150.69;;;-3.76;100.00
69630;BME280;56857;52.212;5.496;2024-01-10T08:55:35;103149.78;;;-3.71;100.00
69630;BME280;56857;52.212;5.496;2024-01-10T08:58:00;103153.16;;;-3.65;100.00
69630;BME280;56857;52.212;5.496;2024-01-10T09:00:25;103159.13;;;-3.63;100.00
69630;BME280;56857;52.212;5.496;2024-01-10T09:02:51;103155.72;;;-3.65;100.00
69630;BME280;56857;52.212;5.496;2024-01-10T09:05:16;103168.56;;;-3.57;100.00
69630;BME280;56857;52.212;5.496;2024-01-10T09:07:41;103160.59;;;-3.40;100.00
69630;BME280;56857;52.212;5.496;2024-01-10T09:10:07;103149.19;;;-3.30;100.00
69630;BME280;56857;52.212;5.496;2024-01-10T09:12:32;103156.97;;;-3.32;100.00
69630;BME280;56857;52.212;5.496;2024-01-10T09:14:57;103150.09;;;-3.34;100.00
69630;BME280;56857;52.212;5.496;2024-01-10T09:17:23;103146.66;;;-3.35;100.00
69630;BME280;56857;52.212;5.496;2024-01-10T09:19:48;103148.34;;;-3.32;100.00
69630;BME280;56857;52.212;5.496;2024-01-10T09:22:13;103146.53;;;-3.27;100.00
69630;BME280;56857;52.212;5.496;2024-01-10T09:24:39;103153.44;;;-3.26;100.00
69630;BME280;56857;52.212;5.496;2024-01-10T09:27:04;103153.34;;;-3.18;100.00
69630;BME280;56857;52.212;5.496;2024-01-10T09:29:30;103149.75;;;-3.11;100.00
69630;BME280;56857;52.212;5.496;2024-01-10T09:31:55;103147.16;;;-3.13;100.00
69630;BME280;56857;52.212;5.496;2024-01-10T09:34:20;103154.81;;;-3.04;100.00
69630;BME280;56857;52.212;5.496;2024-01-10T09:36:45;103154.56;;;-2.87;100.00
69630;BME280;56857;52.212;5.496;2024-01-10T09:39:11;103161.03;;;-2.61;100.00
69630;BME280;56857;52.212;5.496;2024-01-10T09:41:47;103153.44;;;-2.25;100.00
69630;BME280;56857;52.212;5.496;2024-01-10T09:44:13;103153.09;;;-2.08;100.00
69630;BME280;56857;52.212;5.496;2024-01-10T09:46:38;103159.91;;;-2.03;100.00
69630;BME280;56857;52.212;5.496;2024-01-10T09:49:05;103151.19;;;-2.00;100.00
69630;BME280;56857;52.212;5.496;2024-01-10T09:51:33;103159.00;;;-2.00;100.00
69630;BME280;56857;52.212;5.496;2024-01-10T09:54:02;103158.09;;;-1.98;100.00
69630;BME280;56857;52.212;5.496;2024-01-10T09:56:28;103157.22;;;-1.98;99.41
69630;BME280;56857;52.212;5.496;2024-01-10T09:58:55;103152.03;;;-1.98;100.00
69630;BME280;56857;52.212;5.496;2024-01-10T10:01:23;103152.72;;;-1.90;100.00
69630;BME280;56857;52.212;5.496;2024-01-10T10:03:49;103152.63;;;-1.85;100.00
69630;BME280;56857;52.212;5.496;2024-01-10T10:06:15;103152.47;;;-1.78;100.00
69630;BME280;56857;52.212;5.496;2024-01-10T10:08:40;103152.47;;;-1.78;100.00
69630;BME280;56857;52.212;5.496;2024-01-10T10:11:05;103158.31;;;-1.68;100.00
69630;BME280;56857;52.212;5.496;2024-01-10T10:13:30;103159.16;;;-1.66;100.00
69630;BME280;56857;52.212;5.496;2024-01-10T10:16:00;103159.94;;;-1.63;100.00
69630;BME280;56857;52.212;5.496;2024-01-10T10:18:26;103161.69;;;-1.63;100.00
69630;BME280;56857;52.212;5.496;2024-01-10T10:21:13;103155.63;;;-1.64;99.47
69630;BME280;56857;52.212;5.496;2024-01-10T10:23:44;103151.22;;;-1.61;100.00
69630;BME280;56857;52.212;5.496;2024-01-10T10:26:22;103155.50;;;-1.59;100.00
69630;BME280;56857;52.212;5.496;2024-01-10T10:28:48;103157.16;;;-1.55;100.00
69630;BME280;56857;52.212;5.496;2024-01-10T10:31:13;103151.88;;;-1.52;97.29
69630;BME280;56857;52.212;5.496;2024-01-10T10:33:39;103148.47;;;-1.54;94.80
69630;BME280;56857;52.212;5.496;2024-01-10T10:36:04;103140.75;;;-1.57;95.41
69630;BME280;56857;52.212;5.496;2024-01-10T10:38:31;103145.16;;;-1.60;94.47
69630;BME280;56857;52.212;5.496;2024-01-10T10:40:56;103143.44;;;-1.61;94.34
69630;BME280;56857;52.212;5.496;2024-01-10T10:43:22;103136.53;;;-1.63;92.95
69630;BME280;56857;52.212;5.496;2024-01-10T10:45:49;103133.09;;;-1.65;92.04
69630;BME280;56857;52.212;5.496;2024-01-10T10:48:17;103136.59;;;-1.66;93.33
69630;BME280;56857;52.212;5.496;2024-01-10T10:53:28;103140.03;;;-1.65;95.96
69630;BME280;56857;52.212;5.496;2024-01-10T10:55:56;103139.06;;;-1.61;95.29
69630;BME280;56857;52.212;5.496;2024-01-10T10:58:22;103138.09;;;-1.55;94.20
69630;BME280;56857;52.212;5.496;2024-01-10T11:00:47;103128.44;;;-1.50;95.54
69630;BME280;56857;52.212;5.496;2024-01-10T11:03:14;103127.59;;;-1.51;94.27
69630;BME280;56857;52.212;5.496;2024-01-10T11:05:41;103123.97;;;-1.45;93.76
69630;BME280;56857;52.212;5.496;2024-01-10T11:08:07;103124.75;;;-1.40;94.02
69630;BME280;56857;52.212;5.496;2024-01-10T11:10:37;103123.09;;;-1.44;93.74
69630;BME280;56857;52.212;5.496;2024-01-10T11:13:21;103123.88;;;-1.41;95.15
69630;BME280;56857;52.212;5.496;2024-01-10T11:18:51;103136.56;;;-1.27;95.14
69630;BME280;56857;52.212;5.496;2024-01-10T11:24:17;103128.84;;;-0.96;91.47
69630;BME280;56857;52.212;5.496;2024-01-10T11:26:45;103129.59;;;-0.90;90.91
69630;BME280;56857;52.212;5.496;2024-01-10T11:29:10;103132.84;;;-0.81;91.74
69630;BME280;56857;52.212;5.496;2024-01-10T11:31:35;103124.72;;;-0.70;91.20
69630;BME280;56857;52.212;5.496;2024-01-10T11:34:03;103115.97;;;-0.67;88.51
69630;BME280;56857;52.212;5.496;2024-01-10T11:36:28;103123.63;;;-0.61;92.19
69630;BME280;56857;52.212;5.496;2024-01-10T11:38:58;103131.38;;;-0.58;92.16
69630;BME280;56857;52.212;5.496;2024-01-10T11:46:40;103123.34;;;-0.51;91.08
69630;BME280;56857;52.212;5.496;2024-01-10T11:49:10;103116.31;;;-0.47;90.72
69630;BME280;56857;52.212;5.496;2024-01-10T11:51:36;103121.38;;;-0.41;91.10
69630;BME280;56857;52.212;5.496;2024-01-10T11:54:02;103118.47;;;-0.32;92.38
69630;BME280;56857;52.212;5.496;2024-01-10T11:56:37;103111.28;;;-0.22;92.79
69630;BME280;56857;52.212;5.496;2024-01-10T11:59:06;103107.59;;;-0.15;90.34
69630;BME280;56857;52.212;5.496;2024-01-10T12:01:32;103110.09;;;-0.12;87.79
69630;BME280;56857;52.212;5.496;2024-01-10T12:03:57;103099.59;;;-0.09;89.58
69630;BME280;56857;52.212;5.496;2024-01-10T12:06:23;103107.25;;;-0.03;89.52
69630;BME280;56857;52.212;5.496;2024-01-10T12:08:49;103104.56;;;-0.01;90.62
69630;BME280;56857;52.212;5.496;2024-01-10T12:11:14;103104.75;;;-0.07;88.23
69630;BME280;56857;52.212;5.496;2024-01-10T12:13:39;103102.09;;;-0.06;88.62
69630;BME280;56857;52.212;5.496;2024-01-10T12:16:05;103096.91;;;-0.06;88.14
69630;BME280;56857;52.212;5.496;2024-01-10T12:18:30;103093.66;;;-0.14;89.08
69630;BME280;56857;52.212;5.496;2024-01-10T12:20:55;103090.09;;;-0.11;87.68
69630;BME280;56857;52.212;5.496;2024-01-10T12:23:21;103089.19;;;-0.10;89.04
69630;BME280;56857;52.212;5.496;2024-01-10T12:25:48;103089.44;;;-0.18;87.73
69630;BME280;56857;52.212;5.496;2024-01-10T12:28:16;103089.47;;;-0.19;85.16
69630;BME280;56857;52.212;5.496;2024-01-10T12:30:42;103075.72;;;-0.25;83.85
69630;BME280;56857;52.212;5.496;2024-01-10T12:33:09;103080.88;;;-0.23;84.64
69630;BME280;56857;52.212;5.496;2024-01-10T12:35:34;103076.44;;;-0.19;81.83
69630;BME280;56857;52.212;5.496;2024-01-10T12:37:59;103079.09;;;-0.21;82.22
69630;BME280;56857;52.212;5.496;2024-01-10T12:40:24;103071.28;;;-0.21;80.50
69630;BME280;56857;52.212;5.496;2024-01-10T12:43:02;103067.72;;;-0.18;84.22
69630;BME280;56857;52.212;5.496;2024-01-10T12:45:27;103070.28;;;-0.17;84.72
69630;BME280;56857;52.212;5.496;2024-01-10T12:47:57;103072.97;;;-0.20;83.44
69630;BME280;56857;52.212;5.496;2024-01-10T12:50:23;103069.47;;;-0.19;83.95